createdAt,value
2022-09-16T00:00:59.009Z,1.57
2022-09-16T00:03:27.006Z,1.07
2022-09-16T00:05:55.212Z,1.60
2022-09-16T00:08:24.613Z,1.40
2022-09-16T00:10:52.408Z,1.87
2022-09-16T00:13:20.777Z,1.30
2022-09-16T00:15:51.252Z,1.90
2022-09-16T00:18:20.408Z,1.53
2022-09-16T00:20:49.735Z,1.83
2022-09-16T00:23:18.277Z,2.07
2022-09-16T00:25:51.627Z,1.97
2022-09-16T00:28:19.673Z,1.73
2022-09-16T00:30:47.516Z,1.77
2022-09-16T00:33:15.288Z,1.60
2022-09-16T00:35:43.187Z,1.70
2022-09-16T00:38:11.015Z,2.17
2022-09-16T00:40:45.436Z,2.40
2022-09-16T00:43:16.418Z,2.80
2022-09-16T00:45:47.734Z,2.97
2022-09-16T00:48:20.653Z,2.70
2022-09-16T00:50:51.456Z,2.80
2022-09-16T00:53:24.434Z,2.20
2022-09-16T00:55:54.717Z,1.83
2022-09-16T00:58:29.627Z,1.30
2022-09-16T01:00:57.540Z,1.33
2022-09-16T01:03:27.153Z,1.30
2022-09-16T01:05:55.005Z,1.20
2022-09-16T01:08:22.843Z,1.30
2022-09-16T01:10:50.619Z,1.30
2022-09-16T01:13:18.742Z,1.30
2022-09-16T01:15:56.601Z,0.97
2022-09-16T01:18:32.342Z,1.27
2022-09-16T01:21:26.568Z,1.40
2022-09-16T01:24:23.327Z,1.57
2022-09-16T01:27:08.310Z,0.93
2022-09-16T01:30:17.577Z,0.93
2022-09-16T01:32:58.828Z,1.10
2022-09-16T01:35:34.568Z,1.10
2022-09-16T01:38:10.884Z,1.20
2022-09-16T01:40:44.705Z,1.37
2022-09-16T01:43:21.328Z,1.30
2022-09-16T01:45:56.501Z,1.40
2022-09-16T01:48:34.725Z,1.20
2022-09-16T01:51:09.594Z,0.87
2022-09-16T01:53:40.347Z,1.30
2022-09-16T01:56:14.519Z,1.33
2022-09-16T01:58:48.416Z,1.40
2022-09-16T02:01:23.613Z,1.50
2022-09-16T02:03:58.915Z,1.40
2022-09-16T02:06:29.731Z,1.17
2022-09-16T02:09:01.087Z,1.60
2022-09-16T02:11:28.891Z,1.27
2022-09-16T02:14:00.700Z,1.20
2022-09-16T02:16:36.517Z,1.17
2022-09-16T02:19:10.898Z,1.20
2022-09-16T02:21:45.412Z,0.93
2022-09-16T02:24:17.878Z,1.33
2022-09-16T02:26:52.939Z,1.40
2022-09-16T02:29:24.632Z,1.00
2022-09-16T02:31:57.325Z,1.00
2022-09-16T02:34:31.736Z,1.17
2022-09-16T02:37:05.765Z,1.30
2022-09-16T02:39:38.549Z,1.50
2022-09-16T02:42:07.396Z,1.70
2022-09-16T02:44:35.466Z,1.50
2022-09-16T02:47:10.635Z,1.50
2022-09-16T02:49:44.420Z,1.50
2022-09-16T02:52:17.835Z,1.40
2022-09-16T02:54:53.612Z,1.87
2022-09-16T02:57:21.949Z,1.60
2022-09-16T02:59:50.765Z,2.00
2022-09-16T03:02:19.082Z,2.00
2022-09-16T03:04:48.254Z,3.93
2022-09-16T03:07:17.515Z,6.00
2022-09-16T03:09:49.023Z,5.63
2022-09-16T03:12:25.002Z,4.37
2022-09-16T03:15:26.420Z,3.10
2022-09-16T03:18:12.434Z,2.10
2022-09-16T03:20:48.342Z,1.63
2022-09-16T03:23:28.743Z,1.53
2022-09-16T03:26:04.989Z,1.73
2022-09-16T03:28:42.166Z,1.60
2022-09-16T03:31:12.834Z,1.60
2022-09-16T03:33:48.654Z,1.70
2022-09-16T03:36:22.131Z,1.53
2022-09-16T03:38:51.300Z,1.33
2022-09-16T03:41:19.450Z,1.30
2022-09-16T03:43:54.242Z,2.10
2022-09-16T03:46:22.666Z,1.57
2022-09-16T03:48:50.541Z,2.03
2022-09-16T03:51:19.800Z,1.37
2022-09-16T03:53:47.603Z,1.50
2022-09-16T03:56:15.346Z,1.70
2022-09-16T03:58:43.144Z,1.70
2022-09-16T04:01:11.002Z,1.80
2022-09-16T04:03:38.802Z,1.53
2022-09-16T04:06:06.967Z,1.70
2022-09-16T04:08:36.175Z,1.50
2022-09-16T04:11:06.363Z,1.87
2022-09-16T04:13:35.508Z,1.80
2022-09-16T04:16:06.333Z,2.03
2022-09-16T04:18:34.950Z,3.20
2022-09-16T04:21:04.826Z,3.30
2022-09-16T04:23:32.976Z,3.00
2022-09-16T04:26:03.739Z,2.13
2022-09-16T04:28:34.662Z,2.00
2022-09-16T04:31:03.458Z,1.70
2022-09-16T04:33:32.662Z,1.73
2022-09-16T04:36:04.594Z,2.07
2022-09-16T04:38:32.406Z,1.50
2022-09-16T04:41:06.616Z,1.57
2022-09-16T04:43:35.078Z,1.67
2022-09-16T04:46:03.280Z,1.67
2022-09-16T04:48:31.460Z,1.83
2022-09-16T04:51:04.334Z,1.70
2022-09-16T04:53:32.227Z,1.60
2022-09-16T04:56:09.433Z,1.50
2022-09-16T04:58:38.202Z,1.53
2022-09-16T05:01:07.962Z,1.50
2022-09-16T05:03:35.782Z,1.40
2022-09-16T05:06:09.083Z,1.53
2022-09-16T05:08:37.050Z,1.40
2022-09-16T05:11:08.031Z,1.30
2022-09-16T05:13:35.915Z,1.60
2022-09-16T05:16:06.027Z,2.23
2022-09-16T05:18:33.955Z,2.00
2022-09-16T05:21:04.803Z,1.83
2022-09-16T05:23:33.623Z,2.00
2022-09-16T05:26:04.874Z,2.10
2022-09-16T05:28:34.376Z,2.23
2022-09-16T05:31:09.886Z,2.00
2022-09-16T05:33:38.030Z,2.23
2022-09-16T05:36:07.239Z,2.73
2022-09-16T05:38:35.013Z,2.33
2022-09-16T05:41:03.788Z,2.10
2022-09-16T05:43:33.532Z,2.87
2022-09-16T05:46:01.603Z,2.40
2022-09-16T05:48:29.768Z,2.47
2022-09-16T05:50:59.768Z,2.60
2022-09-16T05:53:28.921Z,2.93
2022-09-16T05:55:57.858Z,2.93
2022-09-16T05:58:26.725Z,3.70
2022-09-16T06:01:01.091Z,3.10
2022-09-16T06:03:29.755Z,3.40
2022-09-16T06:06:01.816Z,4.43
2022-09-16T06:08:29.786Z,5.53
2022-09-16T06:10:57.589Z,5.53
2022-09-16T06:13:25.346Z,5.03
2022-09-16T06:15:57.815Z,4.10
2022-09-16T06:18:29.550Z,3.87
2022-09-16T06:20:58.297Z,3.67
2022-09-16T06:23:26.361Z,3.90
2022-09-16T06:26:01.271Z,3.20
2022-09-16T06:28:29.053Z,3.37
2022-09-16T06:31:07.942Z,3.33
2022-09-16T06:33:37.753Z,3.37
2022-09-16T06:36:06.605Z,3.20
2022-09-16T06:38:34.538Z,2.63
2022-09-16T06:41:03.258Z,2.60
2022-09-16T06:43:31.661Z,3.13
2022-09-16T06:46:00.842Z,2.57
2022-09-16T06:48:29.047Z,2.97
2022-09-16T06:51:02.629Z,2.70
2022-09-16T06:53:31.184Z,2.90
2022-09-16T06:56:02.506Z,2.90
2022-09-16T06:58:33.481Z,2.53
2022-09-16T07:01:07.616Z,2.40
2022-09-16T07:03:38.449Z,2.20
2022-09-16T07:06:08.667Z,2.57
2022-09-16T07:08:37.951Z,2.50
2022-09-16T07:11:07.720Z,2.00
2022-09-16T07:13:35.729Z,2.20
2022-09-16T07:16:13.917Z,2.00
2022-09-16T07:18:42.976Z,2.33
2022-09-16T07:21:14.542Z,2.53
2022-09-16T07:23:43.620Z,2.20
2022-09-16T07:26:13.533Z,2.20
2022-09-16T07:28:42.788Z,2.37
2022-09-16T07:31:12.779Z,2.30
2022-09-16T07:33:42.291Z,2.43
2022-09-16T07:36:14.882Z,2.27
2022-09-16T07:38:42.739Z,1.87
2022-09-16T07:41:12.579Z,2.00
2022-09-16T07:43:41.425Z,2.00
2022-09-16T07:46:11.494Z,2.23
2022-09-16T07:48:39.873Z,2.30
2022-09-16T07:51:10.578Z,2.53
2022-09-16T07:53:40.056Z,1.80
2022-09-16T07:56:09.981Z,1.73
2022-09-16T07:58:38.242Z,1.87
2022-09-16T08:01:06.663Z,1.77
2022-09-16T08:03:34.967Z,2.10
2022-09-16T08:06:04.476Z,2.10
2022-09-16T08:08:32.700Z,1.73
2022-09-16T08:11:03.426Z,1.47
2022-09-16T08:13:32.908Z,1.53
2022-09-16T08:16:02.599Z,1.67
2022-09-16T08:18:31.109Z,1.70
2022-09-16T08:20:59.489Z,1.30
2022-09-16T08:23:27.240Z,1.30
2022-09-16T08:25:58.696Z,1.20
2022-09-16T08:28:39.799Z,1.70
2022-09-16T08:31:17.620Z,1.10
2022-09-16T08:33:46.086Z,1.30
2022-09-16T08:36:16.161Z,1.25
2022-09-16T08:38:45.271Z,1.20
2022-09-16T08:41:27.865Z,1.50
2022-09-16T08:44:04.850Z,1.17
2022-09-16T08:46:40.326Z,1.40
2022-09-16T08:49:26.799Z,1.30
2022-09-16T08:51:55.484Z,1.10
2022-09-16T08:54:29.342Z,1.20
2022-09-16T08:57:02.012Z,1.20
2022-09-16T08:59:37.387Z,1.10
2022-09-16T09:02:22.544Z,1.02
2022-09-16T09:04:50.755Z,0.90
2022-09-16T09:07:26.042Z,0.98
2022-09-16T09:10:07.106Z,0.85
2022-09-16T09:12:41.856Z,1.00
2022-09-16T09:15:34.765Z,1.00
2022-09-16T09:18:18.398Z,1.00
2022-09-16T09:20:55.269Z,0.98
2022-09-16T09:23:38.382Z,1.25
2022-09-16T09:26:14.816Z,1.10
2022-09-16T09:29:08.705Z,0.85
2022-09-16T09:31:48.746Z,1.00
2022-09-16T09:34:29.235Z,1.33
2022-09-16T09:37:18.318Z,1.00
2022-09-16T09:40:04.590Z,0.90
2022-09-16T09:42:38.473Z,0.90
2022-09-16T09:45:19.778Z,1.20
2022-09-16T09:47:53.420Z,1.13
2022-09-16T09:50:27.191Z,0.95
2022-09-16T09:53:05.722Z,1.13
2022-09-16T09:55:35.370Z,0.70
2022-09-16T09:58:12.345Z,1.15
2022-09-16T10:00:40.136Z,0.93
2022-09-16T10:03:13.730Z,0.98
2022-09-16T10:05:42.417Z,1.25
2022-09-16T10:08:18.434Z,0.90
2022-09-16T10:10:51.475Z,1.23
2022-09-16T10:13:20.600Z,1.08
2022-09-16T10:15:53.294Z,1.15
2022-09-16T10:18:27.509Z,0.85
2022-09-16T10:21:03.922Z,1.02
2022-09-16T10:23:32.324Z,1.00
2022-09-16T10:26:08.593Z,0.70
2022-09-16T10:28:37.656Z,0.80
2022-09-16T10:31:08.874Z,1.30
2022-09-16T10:33:44.735Z,0.90
2022-09-16T10:36:20.217Z,1.08
2022-09-16T10:38:53.122Z,1.10
2022-09-16T10:41:23.214Z,0.90
2022-09-16T10:43:53.986Z,0.98
2022-09-16T10:46:22.155Z,1.10
2022-09-16T10:48:54.174Z,0.88
2022-09-16T10:51:25.464Z,1.75
2022-09-16T10:53:56.029Z,1.10
2022-09-16T10:56:25.932Z,1.20
2022-09-16T10:59:03.529Z,1.10
2022-09-16T11:01:45.483Z,1.00
2022-09-16T11:04:55.552Z,1.10
2022-09-16T11:07:37.315Z,0.77
2022-09-16T11:10:20.150Z,0.90
2022-09-16T11:13:18.081Z,0.77
2022-09-16T11:16:02.209Z,1.45
2022-09-16T11:18:44.163Z,1.40
2022-09-16T11:21:31.486Z,1.40
2022-09-16T11:24:16.565Z,1.20
2022-09-16T11:26:52.895Z,0.90
2022-09-16T11:29:39.979Z,1.17
2022-09-16T11:32:18.168Z,1.33
2022-09-16T11:35:01.465Z,1.40
2022-09-16T11:37:38.924Z,0.93
2022-09-16T11:40:23.583Z,2.00
2022-09-16T11:43:05.338Z,1.00
2022-09-16T11:45:48.291Z,0.90
2022-09-16T11:48:39.353Z,1.00
2022-09-16T11:51:21.345Z,1.02
2022-09-16T11:54:15.033Z,1.40
2022-09-16T11:56:47.931Z,1.58
2022-09-16T11:59:22.582Z,1.65
2022-09-16T12:01:56.697Z,1.40
2022-09-16T12:04:31.813Z,1.48
2022-09-16T12:07:07.585Z,1.20
2022-09-16T12:09:42.788Z,1.80
2022-09-16T12:12:14.808Z,1.60
2022-09-16T12:14:46.382Z,1.67
2022-09-16T12:17:18.776Z,1.65
2022-09-16T12:19:53.454Z,1.40
2022-09-16T12:22:25.123Z,1.20
2022-09-16T12:25:01.111Z,1.50
2022-09-16T12:27:45.663Z,0.90
2022-09-16T12:30:18.342Z,1.40
2022-09-16T12:33:00.645Z,1.40
2022-09-16T12:35:33.235Z,1.73
2022-09-16T12:38:01.947Z,1.08
2022-09-16T12:40:37.617Z,1.73
2022-09-16T12:43:32.920Z,1.30
2022-09-16T12:46:35.084Z,1.33
2022-09-16T12:49:37.477Z,1.92
2022-09-16T12:52:27.240Z,1.25
2022-09-16T12:55:43.971Z,1.08
2022-09-16T12:58:29.839Z,1.00
2022-09-16T13:01:13.901Z,1.00
2022-09-16T13:03:46.457Z,0.88
2022-09-16T13:06:23.539Z,0.95
2022-09-16T13:08:52.202Z,1.13
2022-09-16T13:12:23.987Z,1.05
2022-09-16T13:14:22.834Z,1.05
2022-09-16T13:16:55.852Z,0.90
2022-09-16T13:19:34.130Z,1.20
2022-09-16T13:22:18.924Z,1.25
2022-09-16T13:24:51.960Z,1.65
2022-09-16T13:27:35.637Z,1.42
2022-09-16T13:30:22.061Z,1.33
2022-09-16T13:33:00.810Z,1.40
2022-09-16T13:35:42.548Z,1.27
2022-09-16T13:38:26.722Z,1.23
2022-09-16T13:40:59.472Z,1.40
2022-09-16T13:43:33.324Z,1.40
2022-09-16T13:46:10.392Z,1.10
2022-09-16T13:48:44.309Z,1.13
2022-09-16T13:51:19.296Z,1.35
2022-09-16T13:53:49.459Z,1.48
2022-09-16T13:56:43.929Z,1.38
2022-09-16T13:59:26.623Z,1.40
2022-09-16T14:02:05.419Z,1.38
2022-09-16T14:04:51.382Z,1.30
2022-09-16T14:07:31.119Z,1.25
2022-09-16T14:10:04.467Z,1.17
2022-09-16T14:12:40.631Z,0.98
2022-09-16T14:15:10.330Z,0.90
2022-09-16T14:17:42.267Z,0.80
2022-09-16T14:20:17.205Z,1.00
2022-09-16T14:22:45.502Z,0.80
2022-09-16T14:25:29.675Z,1.17
2022-09-16T14:28:17.141Z,0.90
2022-09-16T14:30:52.791Z,0.90
2022-09-16T14:33:24.670Z,1.00
2022-09-16T14:35:55.997Z,1.15
2022-09-16T14:39:07.086Z,1.00
2022-09-16T14:41:25.834Z,1.02
2022-09-16T14:43:56.074Z,1.05
2022-09-16T14:46:25.402Z,0.70
2022-09-16T14:48:53.216Z,0.80
2022-09-16T14:51:24.672Z,0.95
2022-09-16T14:54:13.361Z,1.13
2022-09-16T14:56:41.729Z,1.00
2022-09-16T14:59:12.604Z,0.90
2022-09-16T15:01:43.267Z,0.90
2022-09-16T15:04:18.566Z,1.45
2022-09-16T15:06:52.766Z,1.20
2022-09-16T15:09:36.013Z,0.95
2022-09-16T15:12:05.504Z,1.25
2022-09-16T15:14:33.402Z,1.17
2022-09-16T15:17:04.896Z,0.90
2022-09-16T15:19:37.006Z,0.90
2022-09-16T15:22:06.010Z,1.20
2022-09-16T15:24:35.908Z,0.90
2022-09-16T15:27:04.530Z,1.40
2022-09-16T15:29:35.097Z,1.00
2022-09-16T15:32:21.689Z,1.65
2022-09-16T15:35:06.100Z,1.00
2022-09-16T15:37:35.696Z,1.05
2022-09-16T15:40:12.559Z,1.08
2022-09-16T15:42:40.371Z,1.40
2022-09-16T15:45:17.361Z,1.05
2022-09-16T15:47:56.575Z,1.20
2022-09-16T15:50:27.079Z,0.90
2022-09-16T15:53:00.472Z,1.15
2022-09-16T15:55:34.158Z,1.27
2022-09-16T15:58:07.568Z,1.20
2022-09-16T16:01:02.846Z,1.30
2022-09-16T16:03:51.157Z,1.88
2022-09-16T16:06:19.165Z,1.92
2022-09-16T16:08:50.107Z,1.70
2022-09-16T16:11:21.202Z,1.60
2022-09-16T16:13:51.217Z,1.40
2022-09-16T16:16:20.223Z,1.98
2022-09-16T16:18:49.385Z,1.37
2022-09-16T16:21:17.942Z,1.38
2022-09-16T16:23:45.645Z,1.23
2022-09-16T16:26:13.529Z,0.95
2022-09-16T16:28:41.291Z,1.55
2022-09-16T16:31:14.697Z,1.10
2022-09-16T16:33:44.884Z,1.00
2022-09-16T16:36:15.083Z,1.00
2022-09-16T16:38:43.699Z,1.10
2022-09-16T16:41:12.346Z,0.97
2022-09-16T16:43:40.709Z,1.00
2022-09-16T16:46:08.941Z,1.20
2022-09-16T16:48:37.134Z,1.27
2022-09-16T16:51:07.743Z,0.90
2022-09-16T16:53:37.577Z,1.57
2022-09-16T16:56:09.275Z,1.30
2022-09-16T16:58:40.742Z,1.33
2022-09-16T17:01:09.590Z,1.23
2022-09-16T17:03:39.109Z,1.30
2022-09-16T17:06:07.941Z,1.40
2022-09-16T17:08:37.216Z,1.23
2022-09-16T17:11:10.132Z,1.20
2022-09-16T17:13:38.719Z,1.13
2022-09-16T17:16:07.250Z,1.10
2022-09-16T17:18:35.554Z,1.00
2022-09-16T17:21:04.772Z,1.20
2022-09-16T17:23:32.758Z,1.30
2022-09-16T17:26:02.890Z,1.20
2022-09-16T17:28:31.033Z,1.67
2022-09-16T17:30:58.972Z,1.33
2022-09-16T17:33:26.783Z,1.40
2022-09-16T17:36:01.825Z,1.03
2022-09-16T17:38:29.778Z,1.13
2022-09-16T17:41:04.077Z,1.13
2022-09-16T17:43:32.952Z,1.13
2022-09-16T17:46:01.414Z,1.20
2022-09-16T17:48:29.845Z,1.20
2022-09-16T17:50:58.128Z,0.93
2022-09-16T17:53:26.725Z,1.17
2022-09-16T17:56:02.061Z,1.43
2022-09-16T17:58:31.822Z,1.53
2022-09-16T18:01:06.247Z,1.50
2022-09-16T18:03:34.435Z,2.67
2022-09-16T18:06:07.413Z,2.10
2022-09-16T18:08:35.602Z,1.70
2022-09-16T18:11:03.826Z,2.00
2022-09-16T18:13:33.524Z,1.40
2022-09-16T18:16:05.449Z,1.57
2022-09-16T18:18:33.293Z,1.27
2022-09-16T18:21:01.061Z,1.43
2022-09-16T18:23:28.935Z,1.20
2022-09-16T18:25:57.150Z,1.37
2022-09-16T18:28:25.190Z,1.30
2022-09-16T18:31:04.359Z,1.40
2022-09-16T18:33:32.166Z,1.60
2022-09-16T18:36:01.430Z,1.60
2022-09-16T18:38:30.036Z,1.90
2022-09-16T18:41:06.305Z,1.40
2022-09-16T18:43:34.507Z,1.10
2022-09-16T18:46:15.271Z,1.07
2022-09-16T18:48:45.398Z,1.07
2022-09-16T18:51:18.001Z,1.23
2022-09-16T18:53:46.568Z,1.30
2022-09-16T18:56:19.711Z,1.10
2022-09-16T18:59:10.062Z,2.03
2022-09-16T19:01:38.330Z,1.20
2022-09-16T19:04:08.314Z,1.10
2022-09-16T19:06:38.522Z,1.20
2022-09-16T19:09:08.828Z,1.50
2022-09-16T19:11:37.452Z,1.30
2022-09-16T19:14:06.510Z,1.40
2022-09-16T19:16:34.327Z,1.10
2022-09-16T19:19:05.499Z,1.03
2022-09-16T19:21:33.679Z,1.00
2022-09-16T19:24:03.636Z,1.63
2022-09-16T19:26:33.509Z,1.40
2022-09-16T19:29:01.525Z,1.10
2022-09-16T19:31:31.408Z,1.30
2022-09-16T19:34:00.486Z,1.20
2022-09-16T19:36:33.620Z,1.40
2022-09-16T19:39:02.203Z,1.20
2022-09-16T19:41:32.204Z,1.30
2022-09-16T19:44:02.646Z,1.00
2022-09-16T19:46:32.429Z,1.43
2022-09-16T19:49:00.246Z,1.13
2022-09-16T19:51:29.456Z,1.27
2022-09-16T19:53:58.327Z,1.30
2022-09-16T19:56:27.931Z,1.50
2022-09-16T19:58:56.434Z,1.63
2022-09-16T20:01:26.066Z,1.87
2022-09-16T20:03:54.483Z,1.80
2022-09-16T20:06:24.273Z,1.83
2022-09-16T20:08:56.431Z,1.83
2022-09-16T20:11:29.303Z,2.00
2022-09-16T20:13:58.977Z,1.97
2022-09-16T20:16:28.832Z,2.03
2022-09-16T20:18:56.689Z,2.10
2022-09-16T20:21:26.451Z,1.97
2022-09-16T20:23:56.045Z,1.53
2022-09-16T20:26:24.484Z,1.37
2022-09-16T20:28:54.434Z,1.57
2022-09-16T20:31:24.827Z,1.50
2022-09-16T20:33:53.579Z,1.33
2022-09-16T20:36:22.917Z,1.23
2022-09-16T20:38:51.476Z,1.60
2022-09-16T20:41:22.492Z,1.70
2022-09-16T20:43:51.034Z,1.60
2022-09-16T20:46:21.575Z,1.20
2022-09-16T20:48:50.031Z,1.60
2022-09-16T20:51:19.764Z,1.40
2022-09-16T20:53:52.492Z,1.10
2022-09-16T20:56:22.583Z,1.40
2022-09-16T20:58:50.547Z,1.30
2022-09-16T21:01:20.658Z,1.43
2022-09-16T21:03:52.069Z,1.60
2022-09-16T21:06:20.624Z,1.10
2022-09-16T21:08:48.714Z,1.60
2022-09-16T21:11:18.182Z,1.73
2022-09-16T21:13:52.752Z,2.03
2022-09-16T21:16:21.636Z,1.67
2022-09-16T21:18:54.316Z,1.87
2022-09-16T21:21:22.567Z,1.70
2022-09-16T21:23:51.131Z,1.87
2022-09-16T21:26:20.652Z,1.80
2022-09-16T21:28:57.054Z,1.47
2022-09-16T21:31:26.152Z,1.50
2022-09-16T21:33:54.147Z,1.60
2022-09-16T21:36:23.625Z,1.90
2022-09-16T21:38:52.636Z,1.53
2022-09-16T21:41:22.404Z,1.80
2022-09-16T21:43:55.452Z,1.30
2022-09-16T21:46:26.705Z,1.70
2022-09-16T21:48:57.314Z,1.43
2022-09-16T21:51:25.433Z,1.70
2022-09-16T21:53:53.681Z,1.53
2022-09-16T21:56:23.142Z,1.53
2022-09-16T21:58:56.102Z,1.57
2022-09-16T22:01:25.702Z,2.30
2022-09-16T22:03:56.450Z,2.37
2022-09-16T22:06:25.530Z,1.80
2022-09-16T22:08:54.007Z,2.33
2022-09-16T22:11:24.230Z,1.93
2022-09-16T22:13:54.007Z,1.73
2022-09-16T22:16:27.083Z,1.97
2022-09-16T22:18:56.114Z,2.10
2022-09-16T22:21:25.542Z,2.10
2022-09-16T22:23:53.398Z,2.20
2022-09-16T22:26:23.088Z,1.83
2022-09-16T22:28:51.516Z,2.07
2022-09-16T22:31:22.982Z,1.80
2022-09-16T22:33:52.866Z,2.00
2022-09-16T22:36:22.582Z,1.97
2022-09-16T22:38:52.979Z,2.30
2022-09-16T22:41:21.337Z,1.80
2022-09-16T22:43:51.434Z,1.90
2022-09-16T22:46:22.141Z,1.53
2022-09-16T22:48:50.481Z,2.30
2022-09-16T22:51:20.224Z,2.03
2022-09-16T22:53:48.763Z,2.07
2022-09-16T22:56:19.137Z,1.83
2022-09-16T22:58:48.155Z,2.20
2022-09-16T23:01:18.218Z,2.03
2022-09-16T23:03:48.311Z,1.70
2022-09-16T23:06:16.896Z,1.80
2022-09-16T23:08:46.454Z,1.93
2022-09-16T23:11:16.296Z,2.13
2022-09-16T23:13:45.558Z,2.07
2022-09-16T23:16:16.210Z,2.10
2022-09-16T23:18:45.094Z,1.60
2022-09-16T23:21:15.975Z,2.33
2022-09-16T23:23:45.871Z,2.00
2022-09-16T23:26:18.103Z,1.87
2022-09-16T23:28:47.394Z,1.73
2022-09-16T23:31:17.097Z,1.90
2022-09-16T23:33:45.798Z,1.93
2022-09-16T23:36:16.840Z,1.80
2022-09-16T23:38:45.525Z,1.57
2022-09-16T23:41:15.431Z,2.00
2022-09-16T23:43:44.216Z,2.50
2022-09-16T23:46:14.135Z,1.80
2022-09-16T23:48:43.128Z,2.13
2022-09-16T23:51:11.455Z,1.97
2022-09-16T23:53:42.325Z,2.10
2022-09-16T23:56:12.099Z,2.10
2022-09-16T23:58:40.189Z,2.20
